עמוד ראשי
METAR-TAF:

METAR-TAF

שדות תעופה :

Puntilla, אלסקה, ארצות הברית

קו רוחב: 62-06N, קו אורך: 152-45W, גובה: 560מטר

תצפית מזג אוויר נוכחית

הדו"ח נערך לפני 2 שעות ו 51דקות, בשעה 14:59 UTC
רוח 3קשר מכיוון צפון/צפון-מזרח
טמפרטורת 5 צלסיוס
לחות 93%
לחץ 1015 hPa
ראות: 40.2קילומטר
עננים פזורים בגובה 10000רגל

METAR: PAPT 201459Z 02003KT 25SM SCT100 05/04 A2996 RMK NO SPECI. FIRST

זמן: 09:50 (17:50 UTC)


TAF: חסר

תצפיות ותחזיות מזג אוויר לגבי יותר מ- 4,000 שדות תעופה ברחבי העולם. דוחות METAR ו- TAF.

התחנות הזמינות מסומנות בנקודות צהובות ואדומות על גבי המפה.

העבר את העכבר לנקודה הצבעונית על מנת לראות את שם התחנה.

לאחר מכן, לחץ כדי לראות את תוכן ואת תחזיות מזג האוויר.

כדי לשנות את המפה: לחץ על הכפתורים הירוקים עם הפלוס השחור כדי להתקרב; על הכפתור הירוק עם המקף כדי להתרחק; או בחיצים הירוקים למפות סמוכות.


METAR-TAF: